Time;durP1;ratioP1;P1;durP2;ratioP2;P2;SDS_P1;SDS_P2;PMS_P1;PMS_P2;Temp;Humidity;BMP_temperature;BMP_pressure;BME280_temperature;BME280_humidity;BME280_pressure;Samples;Min_cycle;Max_cycle;Signal;HPM_P1;HPM_P2
2024/03/31 00:00:26;;;;;;;1.33;0.05;;;18.20;37.60;;;;;;6292896;28;20106;-75
2024/03/31 00:03:27;;;;;;;5.72;0.50;;;18.20;37.60;;;;;;6306931;28;20027;-75
2024/03/31 00:06:28;;;;;;;6.78;0.55;;;18.20;37.30;;;;;;6305582;28;20119;-76
2024/03/31 00:09:29;;;;;;;3.63;0.60;;;18.20;37.40;;;;;;6293772;28;20417;-76
2024/03/31 00:12:30;;;;;;;2.78;0.98;;;18.30;37.40;;;;;;6268748;28;20112;-75
2024/03/31 00:15:31;;;;;;;2.28;0.95;;;18.30;37.50;;;;;;6263910;28;20035;-75
2024/03/31 00:18:32;;;;;;;0.40;0.25;;;18.30;37.60;;;;;;6287915;28;20012;-75
2024/03/31 00:21:33;;;;;;;5.07;0.55;;;18.40;37.40;;;;;;6292306;28;20016;-76
2024/03/31 00:24:33;;;;;;;3.60;0.40;;;18.30;37.20;;;;;;6286136;28;20050;-76
2024/03/31 00:27:34;;;;;;;1.80;0.30;;;18.40;37.40;;;;;;6299718;28;20156;-75
2024/03/31 00:30:35;;;;;;;1.95;0.47;;;18.40;37.50;;;;;;6296857;28;20024;-76
2024/03/31 00:33:36;;;;;;;0.88;0.22;;;18.30;37.50;;;;;;6285097;28;20595;-75
2024/03/31 00:36:37;;;;;;;9.75;4.00;;;18.30;37.50;;;;;;6288540;28;20511;-76
2024/03/31 00:39:38;;;;;;;3.40;1.65;;;18.30;37.80;;;;;;6297605;28;20047;-76
2024/03/31 00:42:39;;;;;;;10.65;0.93;;;18.30;38.70;;;;;;6274101;28;20031;-76
2024/03/31 00:45:40;;;;;;;0.55;0.32;;;18.20;40.00;;;;;;6291317;28;20019;-77
2024/03/31 00:48:41;;;;;;;3.38;0.90;;;17.90;41.40;;;;;;6308639;28;20016;-75
2024/03/31 00:51:42;;;;;;;0.43;0.40;;;17.70;42.60;;;;;;6292983;28;20066;-76
2024/03/31 00:54:43;;;;;;;2.05;0.65;;;17.40;43.80;;;;;;6293114;28;20428;-76
2024/03/31 00:57:44;;;;;;;1.98;0.88;;;17.10;44.40;;;;;;6298109;28;20015;-76
2024/03/31 01:00:47;;;;;;;1.98;0.60;;;16.90;45.10;;;;;;6303261;28;20012;-75
2024/03/31 01:03:50;;;;;;;0.32;0.20;;;16.70;45.80;;;;;;6267828;28;20032;-76
2024/03/31 01:06:51;;;;;;;3.92;0.50;;;16.50;46.70;;;;;;6295241;28;20382;-76
2024/03/31 01:09:52;;;;;;;4.25;0.45;;;16.40;47.20;;;;;;6299321;28;20111;-74
2024/03/31 01:12:53;;;;;;;0.75;0.22;;;16.20;47.50;;;;;;6301151;28;20036;-75
2024/03/31 01:15:57;;;;;;;1.83;0.90;;;16.10;48.00;;;;;;6280259;28;20527;-76
2024/03/31 01:18:58;;;;;;;6.38;0.93;;;16.00;48.30;;;;;;6310180;28;20016;-76
2024/03/31 01:22:00;;;;;;;3.10;0.88;;;16.00;48.30;;;;;;6278839;28;20550;-76
2024/03/31 01:25:01;;;;;;;0.57;0.40;;;15.90;48.30;;;;;;6303659;28;20031;-77
2024/03/31 01:28:03;;;;;;;1.23;0.70;;;15.90;48.60;;;;;;6294208;28;20114;-76
2024/03/31 01:31:04;;;;;;;0.95;0.63;;;15.80;48.70;;;;;;6278324;28;20028;-76
2024/03/31 01:34:04;;;;;;;0.47;0.30;;;15.80;48.90;;;;;;6298888;28;20420;-77
2024/03/31 01:37:05;;;;;;;4.78;0.50;;;15.80;49.10;;;;;;6288437;28;20437;-77
2024/03/31 01:40:06;;;;;;;3.13;0.77;;;15.70;49.10;;;;;;6282360;28;20103;-75
2024/03/31 01:43:07;;;;;;;6.43;0.80;;;15.70;49.00;;;;;;6278001;28;20342;-76
2024/03/31 01:46:08;;;;;;;23.60;8.98;;;15.70;49.00;;;;;;6296611;28;20016;-76
2024/03/31 01:49:09;;;;;;;4.03;0.85;;;15.70;48.90;;;;;;6307797;28;20418;-76
2024/03/31 01:52:10;;;;;;;8.75;1.23;;;15.80;49.00;;;;;;6272363;28;20612;-76
2024/03/31 01:55:11;;;;;;;3.33;0.60;;;15.80;49.30;;;;;;6292419;28;20020;-76
2024/03/31 01:58:12;;;;;;;3.10;0.60;;;15.70;49.40;;;;;;6275306;28;20047;-76
2024/03/31 02:01:13;;;;;;;8.60;1.13;;;15.70;50.00;;;;;;6276073;28;20029;-76
2024/03/31 02:04:14;;;;;;;7.35;0.75;;;15.60;50.10;;;;;;6282254;28;20040;-77
2024/03/31 02:07:14;;;;;;;4.80;1.08;;;15.60;50.20;;;;;;6296006;28;20115;-76
2024/03/31 02:10:15;;;;;;;8.55;1.73;;;15.50;50.20;;;;;;6306453;28;20111;-75
2024/03/31 02:13:16;;;;;;;5.20;0.95;;;15.50;50.90;;;;;;6283511;28;20023;-76
2024/03/31 02:16:20;;;;;;;2.35;0.73;;;15.40;50.80;;;;;;6276168;28;20310;-75
2024/03/31 02:19:24;;;;;;;7.32;1.15;;;15.40;50.80;;;;;;6288508;28;20063;-76
2024/03/31 02:22:28;;;;;;;2.25;0.77;;;15.40;50.90;;;;;;6300876;28;20110;-77
2024/03/31 02:25:28;;;;;;;6.20;1.23;;;15.30;51.10;;;;;;6291188;28;20739;-76
2024/03/31 02:28:32;;;;;;;6.68;1.50;;;15.30;51.30;;;;;;6303588;28;20020;-75
2024/03/31 02:31:33;;;;;;;8.73;1.08;;;15.30;51.60;;;;;;6268082;28;20052;-76
2024/03/31 02:34:36;;;;;;;4.57;1.38;;;15.20;51.70;;;;;;6281710;28;20452;-76
2024/03/31 02:37:37;;;;;;;5.10;0.90;;;15.20;51.80;;;;;;6274321;28;20021;-77
2024/03/31 02:40:40;;;;;;;8.55;0.90;;;15.20;52.00;;;;;;6289849;28;20027;-76
2024/03/31 02:43:42;;;;;;;4.63;1.20;;;15.20;51.90;;;;;;6275071;28;20024;-76
2024/03/31 02:46:43;;;;;;;3.40;0.98;;;15.20;52.00;;;;;;6274442;28;20016;-76
2024/03/31 02:49:44;;;;;;;5.57;0.70;;;15.20;52.20;;;;;;6273004;28;20027;-76
2024/03/31 02:52:46;;;;;;;2.38;0.55;;;15.20;52.10;;;;;;6272766;28;20028;-76
2024/03/31 02:55:47;;;;;;;1.52;0.50;;;15.10;52.00;;;;;;6293052;28;20093;-75
2024/03/31 02:58:48;;;;;;;4.40;0.73;;;15.10;52.20;;;;;;6272375;28;20044;-76
2024/03/31 03:01:49;;;;;;;4.18;0.80;;;15.10;52.10;;;;;;6255254;28;20110;-76
2024/03/31 03:04:52;;;;;;;5.43;1.63;;;15.10;52.20;;;;;;6274220;28;20034;-75
2024/03/31 03:07:53;;;;;;;7.07;0.82;;;15.10;52.30;;;;;;6274181;28;20350;-75
2024/03/31 03:10:58;;;;;;;10.23;0.73;;;15.10;52.30;;;;;;6279815;28;20066;-75
2024/03/31 03:13:58;;;;;;;2.58;0.95;;;15.10;52.50;;;;;;6288090;28;20637;-76
2024/03/31 03:17:02;;;;;;;3.30;0.73;;;15.10;52.40;;;;;;6281480;28;20024;-76
2024/03/31 03:20:04;;;;;;;4.50;0.77;;;15.10;52.40;;;;;;6278080;28;20746;-77
2024/03/31 03:23:05;;;;;;;9.90;1.08;;;15.20;52.90;;;;;;6274489;28;20029;-77
2024/03/31 03:26:06;;;;;;;3.33;0.98;;;15.00;52.80;;;;;;6282567;28;20020;-76
2024/03/31 03:29:07;;;;;;;1.95;0.90;;;15.00;52.80;;;;;;6273107;28;20144;-76
2024/03/31 03:32:08;;;;;;;9.80;1.17;;;15.10;52.80;;;;;;6290235;28;20106;-76
2024/03/31 03:35:09;;;;;;;2.05;0.88;;;15.10;52.70;;;;;;6281111;28;20027;-76
2024/03/31 03:38:10;;;;;;;4.05;0.93;;;15.10;52.70;;;;;;6283520;28;20137;-76
2024/03/31 03:41:11;;;;;;;6.10;1.25;;;15.20;52.60;;;;;;6277772;28;20492;-76
2024/03/31 03:44:12;;;;;;;12.23;0.98;;;15.20;52.50;;;;;;6282709;28;20483;-76
2024/03/31 03:47:13;;;;;;;4.78;0.60;;;15.20;52.40;;;;;;6270373;28;20032;-76
2024/03/31 03:50:14;;;;;;;3.40;0.75;;;15.20;52.30;;;;;;6303900;28;20108;-76
2024/03/31 03:53:15;;;;;;;3.33;1.08;;;15.30;52.40;;;;;;6282939;28;20347;-75
2024/03/31 03:56:16;;;;;;;5.18;0.85;;;15.30;52.30;;;;;;6289057;28;20416;-77
2024/03/31 03:59:17;;;;;;;0.63;0.30;;;15.30;52.20;;;;;;6283917;28;20520;-75
2024/03/31 04:02:18;;;;;;;7.32;0.80;;;15.30;52.20;;;;;;6282785;28;20120;-76
2024/03/31 04:05:19;;;;;;;6.07;0.70;;;15.20;52.20;;;;;;6298842;28;20031;-76
2024/03/31 04:08:21;;;;;;;1.95;0.70;;;15.30;52.20;;;;;;6291702;28;20062;-74
2024/03/31 04:11:23;;;;;;;2.75;0.50;;;15.30;51.90;;;;;;6266799;28;20030;-77
2024/03/31 04:14:24;;;;;;;4.45;1.13;;;15.30;51.80;;;;;;6292652;28;20641;-76
2024/03/31 04:17:25;;;;;;;4.22;0.38;;;15.40;51.70;;;;;;6284915;28;20016;-76
2024/03/31 04:20:26;;;;;;;8.68;0.98;;;15.40;51.40;;;;;;6285560;28;20673;-76
2024/03/31 04:23:30;;;;;;;2.45;0.82;;;15.50;51.00;;;;;;6283801;28;20500;-77
2024/03/31 04:26:31;;;;;;;0.82;0.68;;;15.50;50.80;;;;;;6290545;28;20437;-76
2024/03/31 04:29:32;;;;;;;2.13;0.50;;;15.60;50.40;;;;;;6287533;28;20017;-76
2024/03/31 04:32:33;;;;;;;0.45;0.30;;;15.70;50.10;;;;;;6285088;28;21719;-76
2024/03/31 04:35:38;;;;;;;0.95;0.45;;;15.80;49.80;;;;;;6303656;28;20145;-74
2024/03/31 04:38:39;;;;;;;0.00;0.00;;;16.00;49.30;;;;;;6276601;28;20050;-76
2024/03/31 04:41:41;;;;;;;0.10;0.10;;;16.10;48.20;;;;;;6286892;28;20151;-75
2024/03/31 04:44:42;;;;;;;0.08;0.08;;;16.40;47.40;;;;;;6272913;28;20062;-74
2024/03/31 04:47:44;;;;;;;0.00;0.00;;;16.60;47.00;;;;;;6290003;28;20085;-76
2024/03/31 04:50:44;;;;;;;1.35;0.25;;;16.70;46.60;;;;;;6274600;28;20107;-76
2024/03/31 04:53:45;;;;;;;0.00;0.00;;;16.80;46.80;;;;;;6268233;28;20021;-75
2024/03/31 04:56:47;;;;;;;0.03;0.03;;;16.80;46.80;;;;;;6268035;28;20422;-76
2024/03/31 04:59:51;;;;;;;0.08;0.08;;;16.80;47.00;;;;;;6294632;28;20016;-76
2024/03/31 05:02:52;;;;;;;0.00;0.00;;;16.80;47.50;;;;;;6280459;28;20384;-77
2024/03/31 05:05:53;;;;;;;0.10;0.10;;;16.80;47.30;;;;;;6271915;28;20021;-77
2024/03/31 05:08:54;;;;;;;0.00;0.00;;;16.80;47.40;;;;;;6283496;28;20531;-75
2024/03/31 05:11:55;;;;;;;2.35;0.10;;;16.70;47.60;;;;;;6301879;28;20028;-76
2024/03/31 05:14:58;;;;;;;0.00;0.00;;;16.70;47.80;;;;;;6278243;28;20084;-76
2024/03/31 05:17:59;;;;;;;0.20;0.03;;;16.70;47.80;;;;;;6285542;28;20727;-75
2024/03/31 05:21:02;;;;;;;0.10;0.10;;;16.60;47.90;;;;;;6271241;28;20123;-75
2024/03/31 05:24:04;;;;;;;0.10;0.10;;;16.50;48.20;;;;;;6285768;28;20024;-77
2024/03/31 05:27:07;;;;;;;0.52;0.20;;;16.50;48.60;;;;;;6287435;28;20028;-75
2024/03/31 05:30:08;;;;;;;0.00;0.00;;;16.40;48.80;;;;;;6305201;28;20020;-76
2024/03/31 05:33:10;;;;;;;0.00;0.00;;;16.30;49.10;;;;;;6290871;28;20055;-76
2024/03/31 05:36:28;;;;;;;0.00;0.00;;;16.20;49.30;;;;;;6288377;28;20562;-77
2024/03/31 05:39:29;;;;;;;0.00;0.00;;;16.10;49.40;;;;;;6277851;28;20017;-75
2024/03/31 05:42:30;;;;;;;0.00;0.00;;;16.10;49.60;;;;;;6275057;28;20025;-76
2024/03/31 05:45:34;;;;;;;0.00;0.00;;;16.00;49.70;;;;;;6282534;28;20035;-76
2024/03/31 05:48:35;;;;;;;0.00;0.00;;;16.00;49.90;;;;;;6280266;28;20032;-76
2024/03/31 05:51:36;;;;;;;0.00;0.00;;;16.00;49.90;;;;;;6298283;28;20029;-75
2024/03/31 05:54:37;;;;;;;0.00;0.00;;;15.90;49.80;;;;;;6277617;28;20055;-76
2024/03/31 05:57:38;;;;;;;0.00;0.00;;;16.00;49.80;;;;;;6276439;28;20092;-76
2024/03/31 06:00:40;;;;;;;0.00;0.00;;;15.90;49.60;;;;;;6277031;28;20012;-75
2024/03/31 06:03:42;;;;;;;0.30;0.10;;;15.90;49.30;;;;;;6286834;28;20189;-76
2024/03/31 06:06:43;;;;;;;0.00;0.00;;;16.00;49.40;;;;;;6289757;28;20563;-76
2024/03/31 06:09:45;;;;;;;0.00;0.00;;;15.90;49.20;;;;;;6274821;28;20031;-76
2024/03/31 06:12:47;;;;;;;1.23;0.17;;;15.90;49.60;;;;;;6284355;28;20043;-75
2024/03/31 06:15:48;;;;;;;0.00;0.00;;;15.90;50.30;;;;;;6268339;28;20012;-76
2024/03/31 06:18:48;;;;;;;0.40;0.15;;;15.70;50.70;;;;;;6292286;28;20012;-76
2024/03/31 06:21:51;;;;;;;0.00;0.00;;;15.60;51.10;;;;;;6274462;28;20115;-76
2024/03/31 06:24:52;;;;;;;0.32;0.13;;;15.50;51.30;;;;;;6295607;28;20035;-76
2024/03/31 06:27:53;;;;;;;0.00;0.00;;;15.40;51.60;;;;;;6282600;28;20023;-74
2024/03/31 06:30:54;;;;;;;0.00;0.00;;;15.40;51.50;;;;;;6275622;28;20051;-78
2024/03/31 06:33:56;;;;;;;0.00;0.00;;;15.50;51.40;;;;;;6280267;28;20582;-75
2024/03/31 06:36:57;;;;;;;0.10;0.00;;;15.50;51.20;;;;;;6256137;28;20607;-75
2024/03/31 06:39:58;;;;;;;0.10;0.10;;;15.60;51.20;;;;;;6298806;28;20024;-76
2024/03/31 06:43:00;;;;;;;0.05;0.05;;;15.70;51.10;;;;;;6272513;28;20095;-75
2024/03/31 06:46:01;;;;;;;0.00;0.00;;;15.60;50.80;;;;;;6287339;28;20024;-74
2024/03/31 06:49:02;;;;;;;0.00;0.00;;;15.70;50.70;;;;;;6289589;28;20114;-75
2024/03/31 06:52:04;;;;;;;0.55;0.00;;;15.70;50.40;;;;;;6268455;28;20501;-74
2024/03/31 06:55:05;;;;;;;0.00;0.00;;;15.70;50.20;;;;;;6301208;28;20100;-75
2024/03/31 06:58:06;;;;;;;1.08;0.17;;;15.70;50.00;;;;;;6288867;28;20051;-76
2024/03/31 07:01:07;;;;;;;0.10;0.10;;;15.70;49.90;;;;;;6267417;28;20456;-75
2024/03/31 07:04:08;;;;;;;0.10;0.10;;;15.80;49.90;;;;;;6278618;28;20035;-74
2024/03/31 07:07:09;;;;;;;0.00;0.00;;;15.80;49.60;;;;;;6279089;28;20433;-77
2024/03/31 07:10:11;;;;;;;0.10;0.10;;;15.90;49.10;;;;;;6255071;28;20560;-75
2024/03/31 07:13:13;;;;;;;0.00;0.00;;;15.90;48.90;;;;;;6279315;28;20119;-75
2024/03/31 07:16:14;;;;;;;0.20;0.00;;;16.00;48.30;;;;;;6270756;28;20027;-75
2024/03/31 07:19:15;;;;;;;0.00;0.00;;;16.10;48.00;;;;;;6301657;28;20016;-76
2024/03/31 07:22:16;;;;;;;0.00;0.00;;;16.20;47.90;;;;;;6268769;28;20020;-74
2024/03/31 07:25:17;;;;;;;0.98;0.20;;;16.30;47.80;;;;;;6300797;28;20055;-76
2024/03/31 07:28:18;;;;;;;0.00;0.00;;;16.30;47.40;;;;;;6265821;28;20089;-75
2024/03/31 07:31:19;;;;;;;0.00;0.00;;;16.40;47.00;;;;;;6300304;28;20123;-76
2024/03/31 07:34:20;;;;;;;0.20;0.20;;;16.50;47.00;;;;;;6270730;28;20012;-76
2024/03/31 07:37:21;;;;;;;0.52;0.08;;;16.60;46.70;;;;;;6263539;28;20035;-74
2024/03/31 07:40:22;;;;;;;0.52;0.45;;;16.60;46.20;;;;;;6297611;28;20073;-76
2024/03/31 07:43:25;;;;;;;0.17;0.17;;;16.60;45.90;;;;;;6298207;28;20012;-75
2024/03/31 07:46:25;;;;;;;0.00;0.00;;;16.70;45.80;;;;;;6305900;28;20115;-76
2024/03/31 07:49:26;;;;;;;0.03;0.00;;;16.70;45.30;;;;;;6281133;28;20012;-76
2024/03/31 07:52:28;;;;;;;0.15;0.10;;;16.80;45.20;;;;;;6278051;28;20449;-76
2024/03/31 07:55:28;;;;;;;0.00;0.00;;;16.90;45.30;;;;;;6292485;28;20493;-75
2024/03/31 07:58:29;;;;;;;0.10;0.10;;;16.90;45.10;;;;;;6303006;28;20039;-76
2024/03/31 08:01:30;;;;;;;0.10;0.10;;;16.90;45.10;;;;;;6284043;28;20498;-75
2024/03/31 08:04:31;;;;;;;0.00;0.00;;;16.80;45.20;;;;;;6300468;28;20421;-76
2024/03/31 08:07:32;;;;;;;0.00;0.00;;;16.80;45.20;;;;;;6296165;28;20097;-75
2024/03/31 08:10:33;;;;;;;0.10;0.10;;;16.80;45.40;;;;;;6296938;28;20500;-75
2024/03/31 08:13:35;;;;;;;0.08;0.00;;;16.70;45.50;;;;;;6276892;28;20026;-76
2024/03/31 08:16:36;;;;;;;0.00;0.00;;;16.70;45.50;;;;;;6294687;28;20705;-75
2024/03/31 08:19:37;;;;;;;0.05;0.00;;;16.60;45.40;;;;;;6299566;28;20021;-76
2024/03/31 08:22:38;;;;;;;0.00;0.00;;;16.60;45.50;;;;;;6299978;28;20164;-76
2024/03/31 08:25:39;;;;;;;0.00;0.00;;;16.60;45.60;;;;;;6299251;28;20474;-75
2024/03/31 08:28:40;;;;;;;0.00;0.00;;;16.60;45.80;;;;;;6275741;28;20843;-77
2024/03/31 08:31:41;;;;;;;0.00;0.00;;;16.60;45.80;;;;;;6290954;28;20024;-75
2024/03/31 08:34:42;;;;;;;0.38;0.10;;;16.70;45.50;;;;;;6301599;28;20096;-75
2024/03/31 08:37:45;;;;;;;0.00;0.00;;;16.80;45.30;;;;;;6297916;28;20089;-76
2024/03/31 08:40:49;;;;;;;0.00;0.00;;;16.90;45.80;;;;;;6294191;28;20044;-76
2024/03/31 08:43:56;;;;;;;1.80;0.10;;;17.10;45.00;;;;;;6287815;28;20020;-76
2024/03/31 08:46:58;;;;;;;0.00;0.00;;;17.10;44.80;;;;;;6297060;28;20103;-75
2024/03/31 08:49:59;;;;;;;0.00;0.00;;;17.30;44.80;;;;;;6289553;28;20024;-76
2024/03/31 08:53:00;;;;;;;0.05;0.05;;;17.50;44.50;;;;;;6292235;28;20473;-74
2024/03/31 08:56:01;;;;;;;0.25;0.20;;;17.60;44.80;;;;;;6294185;28;20024;-75
2024/03/31 08:59:02;;;;;;;0.32;0.28;;;17.60;43.80;;;;;;6294978;28;20046;-76
2024/03/31 09:02:03;;;;;;;0.25;0.25;;;17.60;44.40;;;;;;6306633;28;20543;-75
2024/03/31 09:05:05;;;;;;;0.05;0.05;;;17.70;44.00;;;;;;6297422;28;20020;-76
2024/03/31 09:08:07;;;;;;;0.00;0.00;;;17.70;43.40;;;;;;6298218;28;20024;-75
2024/03/31 09:11:08;;;;;;;0.10;0.00;;;17.70;42.90;;;;;;6303551;28;20089;-77
2024/03/31 09:14:09;;;;;;;0.00;0.00;;;17.80;42.90;;;;;;6303454;28;20377;-75
2024/03/31 09:17:14;;;;;;;0.20;0.10;;;17.90;42.40;;;;;;6293692;28;20062;-77
2024/03/31 09:20:15;;;;;;;0.15;0.00;;;17.90;41.90;;;;;;6291223;28;20029;-76
2024/03/31 09:23:16;;;;;;;0.03;0.03;;;17.90;41.90;;;;;;6303322;28;20066;-75
2024/03/31 09:26:17;;;;;;;0.30;0.10;;;17.90;41.80;;;;;;6296350;28;20051;-77
2024/03/31 09:29:20;;;;;;;0.10;0.10;;;17.90;41.90;;;;;;6298989;28;20028;-75
2024/03/31 09:32:22;;;;;;;0.20;0.20;;;17.90;41.90;;;;;;6303502;28;20035;-76
2024/03/31 09:35:23;;;;;;;2.85;0.20;;;18.00;41.80;;;;;;6303806;28;20008;-74
2024/03/31 09:38:25;;;;;;;0.47;0.20;;;18.10;41.60;;;;;;6301071;28;20046;-77
2024/03/31 09:41:26;;;;;;;0.28;0.15;;;18.20;41.40;;;;;;6281148;28;20025;-75
2024/03/31 09:44:28;;;;;;;0.17;0.17;;;18.30;41.00;;;;;;6266257;28;20377;-75
2024/03/31 09:47:34;;;;;;;0.00;0.00;;;18.40;40.90;;;;;;6283908;28;20108;-76
2024/03/31 09:50:58;;;;;;;0.52;0.10;;;18.50;40.70;;;;;;6301390;28;20116;-74
2024/03/31 09:54:13;;;;;;;0.38;0.10;;;18.60;40.20;;;;;;6181806;28;20049;-75
2024/03/31 09:57:14;;;;;;;0.00;0.00;;;18.70;40.20;;;;;;6154072;28;20035;-76
2024/03/31 10:00:16;;;;;;;0.10;0.10;;;18.60;40.10;;;;;;6172878;28;20037;-75
2024/03/31 10:03:28;;;;;;;0.00;0.00;;;18.70;40.30;;;;;;6172689;28;20479;-75
2024/03/31 10:06:29;;;;;;;0.30;0.10;;;18.80;39.80;;;;;;6173207;28;20096;-75
2024/03/31 10:09:32;;;;;;;0.63;0.20;;;18.90;39.70;;;;;;6161688;28;20591;-75
2024/03/31 10:12:34;;;;;;;0.35;0.17;;;19.00;39.80;;;;;;6172694;28;20041;-75
2024/03/31 10:15:36;;;;;;;0.10;0.10;;;19.10;39.70;;;;;;6142132;28;20113;-75
2024/03/31 10:18:38;;;;;;;0.52;0.17;;;19.20;40.10;;;;;;6145111;28;20123;-74
2024/03/31 10:21:40;;;;;;;0.10;0.10;;;19.20;39.30;;;;;;6174977;28;20138;-75
2024/03/31 10:24:41;;;;;;;0.30;0.20;;;19.30;39.30;;;;;;6157804;28;20212;-74
2024/03/31 10:27:44;;;;;;;0.65;0.38;;;19.30;39.20;;;;;;6174606;28;20030;-75
2024/03/31 10:30:47;;;;;;;0.47;0.47;;;19.40;39.70;;;;;;6232609;28;20040;-75
2024/03/31 10:33:49;;;;;;;0.30;0.20;;;19.50;39.00;;;;;;6287861;28;20027;-74
2024/03/31 10:36:53;;;;;;;0.65;0.40;;;19.60;38.90;;;;;;6297994;28;20008;-75
2024/03/31 10:39:57;;;;;;;0.85;0.20;;;19.70;38.90;;;;;;6311891;28;20134;-75
2024/03/31 10:43:00;;;;;;;0.10;0.10;;;19.80;38.90;;;;;;6296107;28;20024;-75
2024/03/31 10:46:01;;;;;;;2.22;0.22;;;19.90;38.70;;;;;;6303151;28;20107;-75
2024/03/31 10:49:02;;;;;;;0.35;0.20;;;20.00;38.70;;;;;;6273543;28;20106;-75
2024/03/31 10:52:03;;;;;;;0.98;0.10;;;20.10;38.50;;;;;;6284798;28;20452;-75
2024/03/31 10:55:08;;;;;;;0.00;0.00;;;20.20;38.00;;;;;;6288675;28;20020;-76
2024/03/31 10:58:14;;;;;;;1.00;0.17;;;20.20;38.00;;;;;;6271103;28;20020;-75
2024/03/31 11:01:19;;;;;;;0.52;0.05;;;20.30;37.90;;;;;;6282340;28;20027;-74
2024/03/31 11:04:20;;;;;;;0.05;0.05;;;20.30;37.80;;;;;;6287889;28;20095;-75
2024/03/31 11:07:21;;;;;;;0.15;0.10;;;20.40;37.80;;;;;;6278709;28;20058;-75
2024/03/31 11:10:24;;;;;;;0.73;0.20;;;20.50;37.50;;;;;;6301990;28;20080;-75
2024/03/31 11:13:27;;;;;;;0.55;0.15;;;20.70;37.00;;;;;;6295799;28;20472;-75
2024/03/31 11:16:28;;;;;;;0.77;0.20;;;20.70;36.70;;;;;;6280007;28;20047;-74
2024/03/31 11:19:29;;;;;;;0.05;0.05;;;20.80;36.70;;;;;;6305640;28;20055;-75
2024/03/31 11:22:31;;;;;;;0.00;0.00;;;20.90;36.80;;;;;;6272414;28;20028;-76
2024/03/31 11:25:33;;;;;;;4.30;0.22;;;21.00;36.50;;;;;;6282767;28;20534;-76
2024/03/31 11:28:35;;;;;;;0.00;0.00;;;21.10;36.10;;;;;;6279705;28;20131;-75
2024/03/31 11:31:36;;;;;;;0.98;0.20;;;21.20;35.80;;;;;;6274503;28;20104;-75
2024/03/31 11:34:40;;;;;;;0.10;0.10;;;21.30;35.80;;;;;;6302895;28;20016;-74
2024/03/31 11:37:41;;;;;;;0.10;0.10;;;21.40;35.70;;;;;;6287703;28;20013;-74
2024/03/31 11:40:42;;;;;;;0.10;0.10;;;21.60;35.60;;;;;;6286210;28;20676;-75
2024/03/31 11:43:44;;;;;;;0.20;0.15;;;21.70;35.20;;;;;;6277727;28;20050;-75
2024/03/31 11:46:48;;;;;;;0.00;0.00;;;21.80;35.10;;;;;;6292955;28;20024;-76
2024/03/31 11:49:49;;;;;;;0.90;0.45;;;21.90;34.80;;;;;;6289600;28;20023;-74
2024/03/31 11:52:50;;;;;;;0.08;0.08;;;21.90;34.50;;;;;;6271230;28;20032;-76
2024/03/31 11:55:51;;;;;;;0.10;0.10;;;21.90;34.50;;;;;;6300155;28;20068;-76
2024/03/31 11:58:52;;;;;;;0.00;0.00;;;22.00;34.40;;;;;;6264320;28;20079;-75
2024/03/31 12:01:58;;;;;;;0.20;0.10;;;22.00;34.10;;;;;;6307432;28;20012;-74
2024/03/31 12:04:59;;;;;;;0.45;0.30;;;22.10;34.00;;;;;;6306551;28;20016;-75
2024/03/31 12:08:01;;;;;;;0.60;0.22;;;22.10;33.70;;;;;;6306881;28;20770;-75
2024/03/31 12:11:03;;;;;;;0.20;0.20;;;22.10;33.50;;;;;;6285379;28;20066;-75
2024/03/31 12:14:05;;;;;;;0.10;0.10;;;22.20;33.60;;;;;;6284287;28;20070;-75
2024/03/31 12:17:06;;;;;;;0.20;0.10;;;22.30;33.20;;;;;;6282992;28;20119;-74
2024/03/31 12:20:08;;;;;;;1.05;0.40;;;22.30;33.20;;;;;;6306727;28;20043;-74
2024/03/31 12:23:10;;;;;;;0.20;0.05;;;22.50;33.30;;;;;;6306578;28;20024;-74
2024/03/31 12:26:13;;;;;;;0.90;0.28;;;22.70;33.00;;;;;;6281931;28;20686;-76
2024/03/31 12:29:20;;;;;;;2.88;0.30;;;22.90;32.70;;;;;;6281193;28;20121;-75
2024/03/31 12:32:22;;;;;;;0.00;0.00;;;23.10;32.50;;;;;;6283975;28;20124;-74
2024/03/31 12:35:23;;;;;;;0.30;0.30;;;23.20;32.10;;;;;;6291082;28;20405;-76
2024/03/31 12:38:25;;;;;;;0.00;0.00;;;23.10;31.70;;;;;;6296570;28;20056;-75
2024/03/31 12:41:26;;;;;;;4.28;0.20;;;23.00;31.90;;;;;;6309816;28;20164;-75
2024/03/31 12:44:27;;;;;;;0.30;0.00;;;22.90;32.10;;;;;;6310671;28;20038;-74
2024/03/31 12:47:28;;;;;;;0.25;0.10;;;22.90;32.00;;;;;;6297059;28;20069;-75
2024/03/31 12:50:29;;;;;;;0.50;0.22;;;22.80;31.40;;;;;;6270252;28;20526;-74
2024/03/31 12:53:30;;;;;;;0.10;0.10;;;22.80;31.70;;;;;;6304968;28;20652;-75
2024/03/31 12:56:31;;;;;;;0.47;0.13;;;22.90;31.60;;;;;;6290877;28;20023;-76
2024/03/31 12:59:36;;;;;;;0.10;0.10;;;22.90;31.80;;;;;;6310300;28;20024;-75
2024/03/31 13:02:42;;;;;;;0.63;0.20;;;23.00;31.70;;;;;;6285811;28;20056;-76
2024/03/31 13:05:43;;;;;;;0.13;0.10;;;23.20;31.70;;;;;;6308679;28;20016;-75
2024/03/31 13:08:45;;;;;;;1.27;0.30;;;23.40;31.50;;;;;;6301516;28;20080;-76
2024/03/31 13:11:47;;;;;;;0.65;0.43;;;23.50;31.00;;;;;;6301749;28;20028;-76
2024/03/31 13:14:50;;;;;;;0.10;0.10;;;23.50;31.00;;;;;;6305901;28;20028;-75
2024/03/31 13:17:51;;;;;;;0.65;0.20;;;23.60;31.10;;;;;;6299772;28;20138;-75
2024/03/31 13:20:52;;;;;;;0.17;0.17;;;23.70;30.70;;;;;;6285412;28;20054;-75
2024/03/31 13:23:53;;;;;;;0.10;0.10;;;23.90;30.60;;;;;;6291435;28;20371;-76
2024/03/31 13:26:54;;;;;;;0.00;0.00;;;23.90;30.30;;;;;;6276426;28;20111;-74
2024/03/31 13:29:55;;;;;;;0.95;0.40;;;23.90;30.10;;;;;;6308324;28;20054;-76
2024/03/31 13:32:56;;;;;;;0.10;0.10;;;23.90;30.10;;;;;;6291594;28;20172;-76
2024/03/31 13:35:56;;;;;;;0.77;0.15;;;23.90;30.00;;;;;;6309913;28;20034;-74
2024/03/31 13:38:57;;;;;;;0.60;0.20;;;23.90;29.90;;;;;;6284333;28;20441;-76
2024/03/31 13:42:01;;;;;;;2.05;0.38;;;24.10;29.80;;;;;;6307619;28;20107;-75
2024/03/31 13:45:03;;;;;;;3.53;0.55;;;24.40;29.30;;;;;;6309538;28;20469;-74
2024/03/31 13:48:04;;;;;;;0.45;0.20;;;24.30;29.20;;;;;;6309580;28;20062;-76
2024/03/31 13:51:04;;;;;;;0.77;0.15;;;24.00;28.40;;;;;;6290322;28;20238;-75
2024/03/31 13:54:05;;;;;;;0.10;0.10;;;23.80;28.70;;;;;;6305389;28;20029;-75
2024/03/31 13:57:06;;;;;;;0.50;0.28;;;23.60;29.00;;;;;;6287930;28;20035;-75
2024/03/31 14:00:08;;;;;;;0.40;0.15;;;23.40;29.40;;;;;;6289772;28;20024;-74
2024/03/31 14:03:15;;;;;;;0.00;0.00;;;23.30;29.80;;;;;;6302514;28;20061;-74
2024/03/31 14:06:15;;;;;;;4.53;0.10;;;23.10;29.90;;;;;;6301231;28;20021;-74
2024/03/31 14:09:17;;;;;;;0.60;0.20;;;23.00;30.00;;;;;;6303866;28;20488;-75
2024/03/31 14:12:17;;;;;;;1.17;0.28;;;22.90;30.20;;;;;;6284392;28;20035;-75
2024/03/31 14:15:18;;;;;;;2.88;0.20;;;22.80;30.40;;;;;;6298579;28;20024;-74
2024/03/31 14:18:19;;;;;;;0.80;0.43;;;22.80;30.10;;;;;;6293860;28;20103;-75
2024/03/31 14:21:20;;;;;;;0.45;0.10;;;22.80;30.00;;;;;;6289691;28;20074;-75
2024/03/31 14:24:21;;;;;;;2.70;0.10;;;22.80;29.60;;;;;;6279434;28;20032;-73
2024/03/31 14:27:22;;;;;;;2.17;0.20;;;22.70;29.90;;;;;;6304395;28;20444;-76
2024/03/31 14:30:23;;;;;;;0.35;0.13;;;22.50;30.40;;;;;;6299462;28;20035;-74
2024/03/31 14:33:24;;;;;;;3.63;0.20;;;22.30;31.60;;;;;;6290154;28;20083;-75
2024/03/31 14:36:25;;;;;;;0.30;0.20;;;22.10;32.10;;;;;;6290677;28;20016;-75
2024/03/31 14:39:25;;;;;;;0.20;0.20;;;21.80;32.70;;;;;;6302256;28;20016;-74
2024/03/31 14:42:26;;;;;;;10.15;0.30;;;21.60;33.30;;;;;;6295690;28;20024;-74
2024/03/31 14:45:27;;;;;;;1.25;0.90;;;21.40;33.60;;;;;;6289472;28;20012;-74
2024/03/31 14:48:29;;;;;;;1.73;0.40;;;21.10;34.00;;;;;;6275798;28;21584;-74
2024/03/31 14:51:31;;;;;;;0.20;0.13;;;20.90;34.10;;;;;;6307041;28;20155;-75
2024/03/31 14:54:32;;;;;;;2.35;0.13;;;20.70;34.30;;;;;;6301913;28;20528;-74
2024/03/31 14:57:33;;;;;;;0.82;0.28;;;20.60;34.20;;;;;;6294958;28;20040;-74
2024/03/31 15:00:33;;;;;;;0.20;0.20;;;20.50;34.50;;;;;;6298975;28;20027;-76
2024/03/31 15:03:34;;;;;;;5.07;0.10;;;20.40;34.60;;;;;;6282014;28;20028;-76
2024/03/31 15:06:37;;;;;;;1.50;0.60;;;20.40;34.70;;;;;;6294299;28;20024;-75
2024/03/31 15:09:38;;;;;;;0.80;0.17;;;20.50;34.90;;;;;;6298042;28;20141;-75
2024/03/31 15:12:39;;;;;;;13.30;5.53;;;20.70;34.50;;;;;;6298319;28;20354;-76
2024/03/31 15:15:44;;;;;;;0.32;0.17;;;20.80;33.30;;;;;;6295577;28;20017;-75
2024/03/31 15:18:44;;;;;;;1.23;0.60;;;20.70;33.00;;;;;;6281611;28;20089;-74
2024/03/31 15:21:45;;;;;;;0.22;0.20;;;21.00;32.90;;;;;;6284071;28;20108;-75
2024/03/31 15:24:49;;;;;;;0.25;0.10;;;21.10;32.70;;;;;;6303371;28;20031;-75
2024/03/31 15:27:50;;;;;;;0.95;0.17;;;21.10;32.60;;;;;;6299787;28;20020;-75
2024/03/31 15:30:55;;;;;;;0.10;0.10;;;21.10;32.60;;;;;;6293105;28;20810;-76
2024/03/31 15:33:56;;;;;;;1.33;0.50;;;21.00;32.70;;;;;;6289927;28;20084;-76
2024/03/31 15:36:57;;;;;;;0.75;0.15;;;20.90;32.80;;;;;;6295559;28;20021;-76
2024/03/31 15:39:58;;;;;;;1.00;0.10;;;20.90;33.00;;;;;;6290102;28;20168;-75
2024/03/31 15:42:58;;;;;;;0.47;0.20;;;20.80;33.20;;;;;;6271531;28;20028;-75